sensor_id;sensor_type;location;lat;lon;timestamp;P1;durP1;ratioP1;P2;durP2;ratioP2
58758;SDS011;46777;47.482;19.054;2022-12-18T00:02:12;42.97;;;30.88;;
58758;SDS011;46777;47.482;19.054;2022-12-18T00:04:57;39.50;;;31.27;;
58758;SDS011;46777;47.482;19.054;2022-12-18T00:07:41;41.33;;;32.13;;
58758;SDS011;46777;47.482;19.054;2022-12-18T00:10:26;36.97;;;30.10;;
58758;SDS011;46777;47.482;19.054;2022-12-18T00:13:11;41.17;;;32.30;;
58758;SDS011;46777;47.482;19.054;2022-12-18T00:16:00;39.72;;;30.88;;
58758;SDS011;46777;47.482;19.054;2022-12-18T00:18:44;40.67;;;31.27;;
58758;SDS011;46777;47.482;19.054;2022-12-18T00:21:30;39.72;;;30.02;;
58758;SDS011;46777;47.482;19.054;2022-12-18T00:24:14;37.60;;;29.38;;
58758;SDS011;46777;47.482;19.054;2022-12-18T00:26:59;39.13;;;29.98;;
58758;SDS011;46777;47.482;19.054;2022-12-18T00:29:43;40.17;;;30.48;;
58758;SDS011;46777;47.482;19.054;2022-12-18T00:32:27;41.63;;;29.83;;
58758;SDS011;46777;47.482;19.054;2022-12-18T00:35:12;38.95;;;30.45;;
58758;SDS011;46777;47.482;19.054;2022-12-18T00:37:56;40.80;;;29.63;;
58758;SDS011;46777;47.482;19.054;2022-12-18T00:40:40;38.90;;;29.65;;
58758;SDS011;46777;47.482;19.054;2022-12-18T00:43:24;38.13;;;28.88;;
58758;SDS011;46777;47.482;19.054;2022-12-18T00:46:09;40.30;;;31.00;;
58758;SDS011;46777;47.482;19.054;2022-12-18T00:48:53;39.88;;;29.60;;
58758;SDS011;46777;47.482;19.054;2022-12-18T00:51:37;37.40;;;28.70;;
58758;SDS011;46777;47.482;19.054;2022-12-18T00:54:21;41.25;;;30.10;;
58758;SDS011;46777;47.482;19.054;2022-12-18T00:57:06;38.50;;;29.17;;
58758;SDS011;46777;47.482;19.054;2022-12-18T00:59:50;37.70;;;29.77;;
58758;SDS011;46777;47.482;19.054;2022-12-18T01:02:34;39.17;;;30.65;;
58758;SDS011;46777;47.482;19.054;2022-12-18T01:05:18;39.53;;;30.30;;
58758;SDS011;46777;47.482;19.054;2022-12-18T01:08:03;37.55;;;29.33;;
58758;SDS011;46777;47.482;19.054;2022-12-18T01:10:47;36.35;;;27.50;;
58758;SDS011;46777;47.482;19.054;2022-12-18T01:13:31;36.67;;;27.80;;
58758;SDS011;46777;47.482;19.054;2022-12-18T01:16:16;36.15;;;28.15;;
58758;SDS011;46777;47.482;19.054;2022-12-18T01:19:00;39.45;;;29.20;;
58758;SDS011;46777;47.482;19.054;2022-12-18T01:21:44;42.10;;;37.63;;
58758;SDS011;46777;47.482;19.054;2022-12-18T01:24:29;39.42;;;28.90;;
58758;SDS011;46777;47.482;19.054;2022-12-18T01:27:13;38.78;;;29.08;;
58758;SDS011;46777;47.482;19.054;2022-12-18T01:29:57;37.38;;;28.83;;
58758;SDS011;46777;47.482;19.054;2022-12-18T01:32:41;39.35;;;30.48;;
58758;SDS011;46777;47.482;19.054;2022-12-18T01:35:25;38.53;;;29.08;;
58758;SDS011;46777;47.482;19.054;2022-12-18T01:38:10;37.20;;;29.27;;
58758;SDS011;46777;47.482;19.054;2022-12-18T01:41:00;39.42;;;29.73;;
58758;SDS011;46777;47.482;19.054;2022-12-18T01:46:35;34.30;;;26.58;;
58758;SDS011;46777;47.482;19.054;2022-12-18T01:49:20;37.90;;;29.38;;
58758;SDS011;46777;47.482;19.054;2022-12-18T01:52:04;36.53;;;27.27;;
58758;SDS011;46777;47.482;19.054;2022-12-18T01:54:48;37.33;;;29.30;;
58758;SDS011;46777;47.482;19.054;2022-12-18T01:57:33;36.83;;;27.85;;
58758;SDS011;46777;47.482;19.054;2022-12-18T02:00:19;35.30;;;28.08;;
58758;SDS011;46777;47.482;19.054;2022-12-18T02:03:03;37.25;;;28.27;;
58758;SDS011;46777;47.482;19.054;2022-12-18T02:08:48;38.92;;;29.65;;
58758;SDS011;46777;47.482;19.054;2022-12-18T02:14:34;37.95;;;29.70;;
58758;SDS011;46777;47.482;19.054;2022-12-18T02:17:22;37.17;;;27.80;;
58758;SDS011;46777;47.482;19.054;2022-12-18T02:20:13;38.50;;;28.27;;
58758;SDS011;46777;47.482;19.054;2022-12-18T02:29:31;37.63;;;29.75;;
58758;SDS011;46777;47.482;19.054;2022-12-18T02:31:58;36.58;;;27.58;;
58758;SDS011;46777;47.482;19.054;2022-12-18T02:34:43;37.60;;;28.20;;
58758;SDS011;46777;47.482;19.054;2022-12-18T02:37:28;36.30;;;27.88;;
58758;SDS011;46777;47.482;19.054;2022-12-18T02:40:15;39.03;;;30.23;;
58758;SDS011;46777;47.482;19.054;2022-12-18T02:43:07;36.97;;;29.10;;
58758;SDS011;46777;47.482;19.054;2022-12-18T02:45:53;38.72;;;29.20;;
58758;SDS011;46777;47.482;19.054;2022-12-18T02:48:38;42.58;;;36.80;;
58758;SDS011;46777;47.482;19.054;2022-12-18T02:51:29;38.30;;;29.20;;
58758;SDS011;46777;47.482;19.054;2022-12-18T02:54:20;38.58;;;30.13;;
58758;SDS011;46777;47.482;19.054;2022-12-18T02:57:13;41.03;;;31.52;;
58758;SDS011;46777;47.482;19.054;2022-12-18T03:00:04;39.20;;;29.88;;
58758;SDS011;46777;47.482;19.054;2022-12-18T03:02:57;36.72;;;28.35;;
58758;SDS011;46777;47.482;19.054;2022-12-18T03:05:45;37.55;;;30.25;;
58758;SDS011;46777;47.482;19.054;2022-12-18T03:08:33;35.97;;;28.05;;
58758;SDS011;46777;47.482;19.054;2022-12-18T03:11:19;35.20;;;28.38;;
58758;SDS011;46777;47.482;19.054;2022-12-18T03:14:24;36.47;;;27.88;;
58758;SDS011;46777;47.482;19.054;2022-12-18T03:17:10;38.58;;;29.58;;
58758;SDS011;46777;47.482;19.054;2022-12-18T03:19:58;35.70;;;28.55;;
58758;SDS011;46777;47.482;19.054;2022-12-18T03:22:44;38.08;;;29.27;;
58758;SDS011;46777;47.482;19.054;2022-12-18T03:25:30;39.05;;;28.85;;
58758;SDS011;46777;47.482;19.054;2022-12-18T03:28:16;36.50;;;28.40;;
58758;SDS011;46777;47.482;19.054;2022-12-18T03:31:03;41.72;;;30.85;;
58758;SDS011;46777;47.482;19.054;2022-12-18T03:33:52;36.75;;;28.90;;
58758;SDS011;46777;47.482;19.054;2022-12-18T03:36:37;38.72;;;28.30;;
58758;SDS011;46777;47.482;19.054;2022-12-18T03:39:21;36.10;;;28.30;;
58758;SDS011;46777;47.482;19.054;2022-12-18T03:45:10;36.95;;;28.25;;
58758;SDS011;46777;47.482;19.054;2022-12-18T03:48:01;37.72;;;28.77;;
58758;SDS011;46777;47.482;19.054;2022-12-18T03:53:40;36.22;;;28.20;;
58758;SDS011;46777;47.482;19.054;2022-12-18T03:56:28;39.80;;;29.40;;
58758;SDS011;46777;47.482;19.054;2022-12-18T03:59:14;35.78;;;26.75;;
58758;SDS011;46777;47.482;19.054;2022-12-18T04:01:59;37.42;;;28.95;;
58758;SDS011;46777;47.482;19.054;2022-12-18T04:04:45;38.53;;;28.77;;
58758;SDS011;46777;47.482;19.054;2022-12-18T04:07:30;35.85;;;28.92;;
58758;SDS011;46777;47.482;19.054;2022-12-18T04:10:16;37.97;;;27.80;;
58758;SDS011;46777;47.482;19.054;2022-12-18T04:13:00;38.45;;;34.40;;
58758;SDS011;46777;47.482;19.054;2022-12-18T04:15:44;35.88;;;27.42;;
58758;SDS011;46777;47.482;19.054;2022-12-18T04:18:29;35.47;;;27.42;;
58758;SDS011;46777;47.482;19.054;2022-12-18T04:21:13;37.35;;;29.13;;
58758;SDS011;46777;47.482;19.054;2022-12-18T04:23:57;36.70;;;29.10;;
58758;SDS011;46777;47.482;19.054;2022-12-18T04:26:41;39.60;;;29.35;;
58758;SDS011;46777;47.482;19.054;2022-12-18T04:29:25;36.95;;;27.75;;
58758;SDS011;46777;47.482;19.054;2022-12-18T04:32:10;41.38;;;30.00;;
58758;SDS011;46777;47.482;19.054;2022-12-18T04:34:54;41.50;;;29.85;;
58758;SDS011;46777;47.482;19.054;2022-12-18T04:37:38;40.08;;;30.15;;
58758;SDS011;46777;47.482;19.054;2022-12-18T04:40:23;37.65;;;28.98;;
58758;SDS011;46777;47.482;19.054;2022-12-18T04:43:07;40.95;;;31.48;;
58758;SDS011;46777;47.482;19.054;2022-12-18T04:45:52;37.30;;;28.95;;
58758;SDS011;46777;47.482;19.054;2022-12-18T04:48:36;36.15;;;29.75;;
58758;SDS011;46777;47.482;19.054;2022-12-18T04:51:21;37.05;;;27.75;;
58758;SDS011;46777;47.482;19.054;2022-12-18T04:54:05;38.80;;;29.30;;
58758;SDS011;46777;47.482;19.054;2022-12-18T04:56:49;39.20;;;30.00;;
58758;SDS011;46777;47.482;19.054;2022-12-18T04:59:33;36.08;;;27.75;;
58758;SDS011;46777;47.482;19.054;2022-12-18T05:02:18;38.47;;;28.63;;
58758;SDS011;46777;47.482;19.054;2022-12-18T05:05:02;40.08;;;35.85;;
58758;SDS011;46777;47.482;19.054;2022-12-18T05:07:46;37.45;;;28.08;;
58758;SDS011;46777;47.482;19.054;2022-12-18T05:10:31;39.05;;;29.77;;
58758;SDS011;46777;47.482;19.054;2022-12-18T05:13:15;37.15;;;28.52;;
58758;SDS011;46777;47.482;19.054;2022-12-18T05:15:59;41.15;;;28.13;;
58758;SDS011;46777;47.482;19.054;2022-12-18T05:18:43;35.47;;;28.13;;
58758;SDS011;46777;47.482;19.054;2022-12-18T05:21:28;37.67;;;28.52;;
58758;SDS011;46777;47.482;19.054;2022-12-18T05:24:12;34.17;;;26.42;;
58758;SDS011;46777;47.482;19.054;2022-12-18T05:26:56;33.75;;;26.17;;
58758;SDS011;46777;47.482;19.054;2022-12-18T05:29:40;34.42;;;26.45;;
58758;SDS011;46777;47.482;19.054;2022-12-18T05:32:25;34.28;;;27.02;;
58758;SDS011;46777;47.482;19.054;2022-12-18T05:35:10;35.65;;;27.63;;
58758;SDS011;46777;47.482;19.054;2022-12-18T05:37:54;39.08;;;34.88;;
58758;SDS011;46777;47.482;19.054;2022-12-18T05:40:41;34.58;;;26.33;;
58758;SDS011;46777;47.482;19.054;2022-12-18T05:43:25;37.05;;;28.02;;
58758;SDS011;46777;47.482;19.054;2022-12-18T05:46:12;35.78;;;26.92;;
58758;SDS011;46777;47.482;19.054;2022-12-18T05:48:59;36.92;;;29.20;;
58758;SDS011;46777;47.482;19.054;2022-12-18T05:51:43;38.72;;;28.50;;
58758;SDS011;46777;47.482;19.054;2022-12-18T05:54:27;36.95;;;28.33;;
58758;SDS011;46777;47.482;19.054;2022-12-18T05:57:12;36.25;;;28.23;;
58758;SDS011;46777;47.482;19.054;2022-12-18T05:59:56;35.80;;;28.17;;
58758;SDS011;46777;47.482;19.054;2022-12-18T06:02:41;37.40;;;28.38;;
58758;SDS011;46777;47.482;19.054;2022-12-18T06:05:25;35.22;;;27.88;;
58758;SDS011;46777;47.482;19.054;2022-12-18T06:08:10;37.80;;;28.00;;
58758;SDS011;46777;47.482;19.054;2022-12-18T06:10:54;36.53;;;28.98;;
58758;SDS011;46777;47.482;19.054;2022-12-18T06:13:39;36.83;;;29.08;;
58758;SDS011;46777;47.482;19.054;2022-12-18T06:16:23;40.72;;;30.88;;
58758;SDS011;46777;47.482;19.054;2022-12-18T06:19:07;37.28;;;28.60;;
58758;SDS011;46777;47.482;19.054;2022-12-18T06:21:51;39.33;;;29.80;;
58758;SDS011;46777;47.482;19.054;2022-12-18T06:24:35;39.67;;;29.80;;
58758;SDS011;46777;47.482;19.054;2022-12-18T06:27:20;39.20;;;28.73;;
58758;SDS011;46777;47.482;19.054;2022-12-18T06:30:05;36.92;;;29.58;;
58758;SDS011;46777;47.482;19.054;2022-12-18T06:32:49;36.55;;;29.70;;
58758;SDS011;46777;47.482;19.054;2022-12-18T06:35:33;38.42;;;29.25;;
58758;SDS011;46777;47.482;19.054;2022-12-18T06:38:18;36.25;;;28.58;;
58758;SDS011;46777;47.482;19.054;2022-12-18T06:41:13;38.33;;;28.73;;
58758;SDS011;46777;47.482;19.054;2022-12-18T06:43:57;39.85;;;28.70;;
58758;SDS011;46777;47.482;19.054;2022-12-18T06:46:42;34.88;;;27.30;;
58758;SDS011;46777;47.482;19.054;2022-12-18T06:49:26;36.83;;;28.45;;
58758;SDS011;46777;47.482;19.054;2022-12-18T06:52:10;38.35;;;27.73;;
58758;SDS011;46777;47.482;19.054;2022-12-18T06:54:55;39.25;;;29.35;;
58758;SDS011;46777;47.482;19.054;2022-12-18T06:57:39;37.70;;;29.35;;
58758;SDS011;46777;47.482;19.054;2022-12-18T07:00:23;39.42;;;31.98;;
58758;SDS011;46777;47.482;19.054;2022-12-18T07:03:07;39.88;;;30.15;;
58758;SDS011;46777;47.482;19.054;2022-12-18T07:05:51;39.10;;;30.13;;
58758;SDS011;46777;47.482;19.054;2022-12-18T07:08:36;37.97;;;29.95;;
58758;SDS011;46777;47.482;19.054;2022-12-18T07:11:20;35.63;;;29.08;;
58758;SDS011;46777;47.482;19.054;2022-12-18T07:14:05;36.90;;;29.30;;
58758;SDS011;46777;47.482;19.054;2022-12-18T07:16:49;36.78;;;29.30;;
58758;SDS011;46777;47.482;19.054;2022-12-18T07:19:34;38.13;;;29.83;;
58758;SDS011;46777;47.482;19.054;2022-12-18T07:22:18;38.95;;;30.10;;
58758;SDS011;46777;47.482;19.054;2022-12-18T07:25:02;37.60;;;28.50;;
58758;SDS011;46777;47.482;19.054;2022-12-18T07:27:47;39.50;;;30.45;;
58758;SDS011;46777;47.482;19.054;2022-12-18T07:30:31;36.58;;;28.13;;
58758;SDS011;46777;47.482;19.054;2022-12-18T07:33:15;35.13;;;27.40;;
58758;SDS011;46777;47.482;19.054;2022-12-18T07:36:00;37.60;;;29.15;;
58758;SDS011;46777;47.482;19.054;2022-12-18T07:38:46;39.83;;;30.05;;
58758;SDS011;46777;47.482;19.054;2022-12-18T07:41:31;36.92;;;30.23;;
58758;SDS011;46777;47.482;19.054;2022-12-18T07:44:15;40.40;;;29.23;;
58758;SDS011;46777;47.482;19.054;2022-12-18T07:46:59;40.40;;;30.70;;
58758;SDS011;46777;47.482;19.054;2022-12-18T07:49:43;42.65;;;30.95;;
58758;SDS011;46777;47.482;19.054;2022-12-18T07:52:28;39.03;;;32.85;;
58758;SDS011;46777;47.482;19.054;2022-12-18T07:55:12;39.00;;;29.60;;
58758;SDS011;46777;47.482;19.054;2022-12-18T07:57:56;38.58;;;29.98;;
58758;SDS011;46777;47.482;19.054;2022-12-18T08:00:41;37.92;;;29.92;;
58758;SDS011;46777;47.482;19.054;2022-12-18T08:03:25;39.45;;;31.70;;
58758;SDS011;46777;47.482;19.054;2022-12-18T08:06:09;41.90;;;33.05;;
58758;SDS011;46777;47.482;19.054;2022-12-18T08:08:54;43.70;;;32.33;;
58758;SDS011;46777;47.482;19.054;2022-12-18T08:11:39;45.05;;;34.17;;
58758;SDS011;46777;47.482;19.054;2022-12-18T08:14:23;42.20;;;34.40;;
58758;SDS011;46777;47.482;19.054;2022-12-18T08:17:07;49.72;;;37.17;;
58758;SDS011;46777;47.482;19.054;2022-12-18T08:19:51;46.85;;;35.15;;
58758;SDS011;46777;47.482;19.054;2022-12-18T08:22:36;46.38;;;36.28;;
58758;SDS011;46777;47.482;19.054;2022-12-18T08:25:20;46.65;;;36.00;;
58758;SDS011;46777;47.482;19.054;2022-12-18T08:28:04;47.10;;;40.75;;
58758;SDS011;46777;47.482;19.054;2022-12-18T08:30:51;47.17;;;35.58;;
58758;SDS011;46777;47.482;19.054;2022-12-18T08:33:36;46.75;;;35.70;;
58758;SDS011;46777;47.482;19.054;2022-12-18T08:36:21;48.35;;;36.90;;
58758;SDS011;46777;47.482;19.054;2022-12-18T08:39:05;44.33;;;36.05;;
58758;SDS011;46777;47.482;19.054;2022-12-18T08:41:49;46.80;;;37.42;;
58758;SDS011;46777;47.482;19.054;2022-12-18T08:44:53;49.30;;;40.58;;
58758;SDS011;46777;47.482;19.054;2022-12-18T08:47:37;48.30;;;40.75;;
58758;SDS011;46777;47.482;19.054;2022-12-18T08:50:21;47.67;;;38.72;;
58758;SDS011;46777;47.482;19.054;2022-12-18T08:53:05;48.30;;;40.35;;
58758;SDS011;46777;47.482;19.054;2022-12-18T08:55:50;47.10;;;39.45;;
58758;SDS011;46777;47.482;19.054;2022-12-18T08:58:34;50.30;;;40.25;;
58758;SDS011;46777;47.482;19.054;2022-12-18T09:01:18;43.47;;;37.50;;
58758;SDS011;46777;47.482;19.054;2022-12-18T09:04:02;47.28;;;39.00;;
58758;SDS011;46777;47.482;19.054;2022-12-18T09:06:47;44.95;;;38.35;;
58758;SDS011;46777;47.482;19.054;2022-12-18T09:09:31;46.15;;;37.72;;
58758;SDS011;46777;47.482;19.054;2022-12-18T09:12:15;45.85;;;38.20;;
58758;SDS011;46777;47.482;19.054;2022-12-18T09:14:59;43.55;;;36.35;;
58758;SDS011;46777;47.482;19.054;2022-12-18T09:17:44;43.05;;;36.88;;
58758;SDS011;46777;47.482;19.054;2022-12-18T09:20:28;44.78;;;38.30;;
58758;SDS011;46777;47.482;19.054;2022-12-18T09:23:14;42.67;;;36.67;;
58758;SDS011;46777;47.482;19.054;2022-12-18T09:25:59;43.08;;;37.58;;
58758;SDS011;46777;47.482;19.054;2022-12-18T09:28:43;42.65;;;36.20;;
58758;SDS011;46777;47.482;19.054;2022-12-18T09:31:27;45.05;;;37.13;;
58758;SDS011;46777;47.482;19.054;2022-12-18T09:34:12;42.60;;;36.50;;
58758;SDS011;46777;47.482;19.054;2022-12-18T09:36:56;42.63;;;37.10;;
58758;SDS011;46777;47.482;19.054;2022-12-18T09:39:41;41.40;;;36.65;;
58758;SDS011;46777;47.482;19.054;2022-12-18T09:42:25;45.95;;;38.03;;
58758;SDS011;46777;47.482;19.054;2022-12-18T09:45:11;42.78;;;37.47;;
58758;SDS011;46777;47.482;19.054;2022-12-18T09:47:56;41.90;;;37.10;;
58758;SDS011;46777;47.482;19.054;2022-12-18T09:50:41;44.60;;;37.45;;
58758;SDS011;46777;47.482;19.054;2022-12-18T09:53:26;41.58;;;36.58;;
58758;SDS011;46777;47.482;19.054;2022-12-18T09:56:12;41.03;;;36.58;;
58758;SDS011;46777;47.482;19.054;2022-12-18T09:58:59;40.55;;;36.25;;
58758;SDS011;46777;47.482;19.054;2022-12-18T10:01:44;39.97;;;35.72;;
58758;SDS011;46777;47.482;19.054;2022-12-18T10:04:29;41.50;;;36.30;;
58758;SDS011;46777;47.482;19.054;2022-12-18T10:07:37;39.53;;;35.25;;
58758;SDS011;46777;47.482;19.054;2022-12-18T10:10:26;42.83;;;35.53;;
58758;SDS011;46777;47.482;19.054;2022-12-18T10:16:19;39.90;;;35.60;;
58758;SDS011;46777;47.482;19.054;2022-12-18T10:24:59;40.78;;;36.58;;
58758;SDS011;46777;47.482;19.054;2022-12-18T10:27:45;40.67;;;36.35;;
58758;SDS011;46777;47.482;19.054;2022-12-18T10:30:30;40.35;;;36.10;;
58758;SDS011;46777;47.482;19.054;2022-12-18T10:33:16;41.10;;;36.80;;
58758;SDS011;46777;47.482;19.054;2022-12-18T10:36:00;41.78;;;36.85;;
58758;SDS011;46777;47.482;19.054;2022-12-18T10:38:45;40.95;;;36.55;;
58758;SDS011;46777;47.482;19.054;2022-12-18T10:41:29;40.97;;;36.67;;
58758;SDS011;46777;47.482;19.054;2022-12-18T10:47:02;41.50;;;37.15;;
58758;SDS011;46777;47.482;19.054;2022-12-18T10:49:49;40.50;;;36.15;;
58758;SDS011;46777;47.482;19.054;2022-12-18T10:52:34;42.75;;;37.85;;
58758;SDS011;46777;47.482;19.054;2022-12-18T10:55:18;41.28;;;36.83;;
58758;SDS011;46777;47.482;19.054;2022-12-18T11:06:34;38.60;;;34.60;;
58758;SDS011;46777;47.482;19.054;2022-12-18T11:09:37;38.20;;;34.30;;
58758;SDS011;46777;47.482;19.054;2022-12-18T11:12:21;39.70;;;35.47;;
58758;SDS011;46777;47.482;19.054;2022-12-18T11:15:13;40.17;;;35.95;;
58758;SDS011;46777;47.482;19.054;2022-12-18T11:17:59;39.25;;;35.15;;
58758;SDS011;46777;47.482;19.054;2022-12-18T11:20:43;39.72;;;35.42;;
58758;SDS011;46777;47.482;19.054;2022-12-18T11:23:34;38.60;;;34.50;;
58758;SDS011;46777;47.482;19.054;2022-12-18T11:26:19;38.20;;;34.22;;
58758;SDS011;46777;47.482;19.054;2022-12-18T11:29:08;39.55;;;35.35;;
58758;SDS011;46777;47.482;19.054;2022-12-18T11:31:59;37.63;;;33.70;;
58758;SDS011;46777;47.482;19.054;2022-12-18T11:35:01;36.33;;;32.63;;
58758;SDS011;46777;47.482;19.054;2022-12-18T11:37:48;38.10;;;33.97;;
58758;SDS011;46777;47.482;19.054;2022-12-18T11:40:37;38.30;;;34.28;;
58758;SDS011;46777;47.482;19.054;2022-12-18T11:43:58;38.00;;;34.05;;
58758;SDS011;46777;47.482;19.054;2022-12-18T11:46:34;36.65;;;33.03;;
58758;SDS011;46777;47.482;19.054;2022-12-18T11:49:22;37.25;;;33.40;;
58758;SDS011;46777;47.482;19.054;2022-12-18T11:54:59;34.33;;;30.60;;
58758;SDS011;46777;47.482;19.054;2022-12-18T12:00:29;33.42;;;29.90;;
58758;SDS011;46777;47.482;19.054;2022-12-18T12:03:18;34.40;;;30.80;;
58758;SDS011;46777;47.482;19.054;2022-12-18T12:09:27;33.13;;;29.63;;
58758;SDS011;46777;47.482;19.054;2022-12-18T12:12:13;32.97;;;29.58;;
58758;SDS011;46777;47.482;19.054;2022-12-18T12:23:38;32.03;;;28.58;;
58758;SDS011;46777;47.482;19.054;2022-12-18T12:32:28;30.73;;;27.63;;
58758;SDS011;46777;47.482;19.054;2022-12-18T12:38:14;30.38;;;27.27;;
58758;SDS011;46777;47.482;19.054;2022-12-18T12:41:04;30.05;;;27.05;;
58758;SDS011;46777;47.482;19.054;2022-12-18T12:43:49;31.38;;;28.17;;
58758;SDS011;46777;47.482;19.054;2022-12-18T12:46:34;30.83;;;27.92;;
58758;SDS011;46777;47.482;19.054;2022-12-18T12:49:20;31.95;;;28.75;;
58758;SDS011;46777;47.482;19.054;2022-12-18T12:55:07;32.10;;;28.77;;
58758;SDS011;46777;47.482;19.054;2022-12-18T12:57:59;31.98;;;28.77;;
58758;SDS011;46777;47.482;19.054;2022-12-18T13:00:53;32.95;;;29.83;;
58758;SDS011;46777;47.482;19.054;2022-12-18T13:06:43;31.88;;;28.80;;
58758;SDS011;46777;47.482;19.054;2022-12-18T13:09:33;34.80;;;31.40;;
58758;SDS011;46777;47.482;19.054;2022-12-18T13:12:19;33.85;;;30.55;;
58758;SDS011;46777;47.482;19.054;2022-12-18T13:23:37;36.40;;;32.95;;
58758;SDS011;46777;47.482;19.054;2022-12-18T13:29:06;37.50;;;33.85;;
58758;SDS011;46777;47.482;19.054;2022-12-18T13:31:57;44.03;;;40.05;;
58758;SDS011;46777;47.482;19.054;2022-12-18T13:34:42;39.88;;;35.97;;
58758;SDS011;46777;47.482;19.054;2022-12-18T13:37:39;43.00;;;38.83;;
58758;SDS011;46777;47.482;19.054;2022-12-18T13:51:55;44.05;;;39.55;;
58758;SDS011;46777;47.482;19.054;2022-12-18T13:54:40;45.25;;;40.72;;
58758;SDS011;46777;47.482;19.054;2022-12-18T13:57:27;45.85;;;41.15;;
58758;SDS011;46777;47.482;19.054;2022-12-18T14:03:15;44.97;;;40.17;;
58758;SDS011;46777;47.482;19.054;2022-12-18T14:06:06;46.53;;;39.60;;
58758;SDS011;46777;47.482;19.054;2022-12-18T14:08:52;45.97;;;41.08;;
58758;SDS011;46777;47.482;19.054;2022-12-18T14:11:36;46.88;;;41.72;;
58758;SDS011;46777;47.482;19.054;2022-12-18T14:14:21;45.50;;;38.25;;
58758;SDS011;46777;47.482;19.054;2022-12-18T14:17:08;44.42;;;37.05;;
58758;SDS011;46777;47.482;19.054;2022-12-18T14:19:52;47.15;;;39.15;;
58758;SDS011;46777;47.482;19.054;2022-12-18T14:22:37;47.28;;;38.92;;
58758;SDS011;46777;47.482;19.054;2022-12-18T14:30:50;43.38;;;34.72;;
58758;SDS011;46777;47.482;19.054;2022-12-18T14:33:34;43.97;;;35.17;;
58758;SDS011;46777;47.482;19.054;2022-12-18T14:36:22;44.10;;;37.55;;
58758;SDS011;46777;47.482;19.054;2022-12-18T14:39:13;43.05;;;36.80;;
58758;SDS011;46777;47.482;19.054;2022-12-18T14:42:00;43.40;;;37.22;;
58758;SDS011;46777;47.482;19.054;2022-12-18T14:44:44;44.58;;;37.08;;
58758;SDS011;46777;47.482;19.054;2022-12-18T14:47:29;47.22;;;39.40;;
58758;SDS011;46777;47.482;19.054;2022-12-18T14:50:13;49.00;;;40.85;;
58758;SDS011;46777;47.482;19.054;2022-12-18T14:52:58;43.10;;;36.42;;
58758;SDS011;46777;47.482;19.054;2022-12-18T14:55:44;48.47;;;40.10;;
58758;SDS011;46777;47.482;19.054;2022-12-18T14:58:30;48.00;;;40.17;;
58758;SDS011;46777;47.482;19.054;2022-12-18T15:01:18;55.53;;;43.10;;
58758;SDS011;46777;47.482;19.054;2022-12-18T15:04:04;49.08;;;41.22;;
58758;SDS011;46777;47.482;19.054;2022-12-18T15:06:50;53.30;;;46.70;;
58758;SDS011;46777;47.482;19.054;2022-12-18T15:18:30;51.20;;;40.28;;
58758;SDS011;46777;47.482;19.054;2022-12-18T15:21:17;50.35;;;41.05;;
58758;SDS011;46777;47.482;19.054;2022-12-18T15:24:02;48.97;;;40.03;;
58758;SDS011;46777;47.482;19.054;2022-12-18T15:26:47;52.28;;;41.17;;
58758;SDS011;46777;47.482;19.054;2022-12-18T15:29:32;49.47;;;39.90;;
58758;SDS011;46777;47.482;19.054;2022-12-18T15:32:18;49.95;;;40.70;;
58758;SDS011;46777;47.482;19.054;2022-12-18T15:38:03;51.17;;;41.80;;
58758;SDS011;46777;47.482;19.054;2022-12-18T15:40:47;51.38;;;40.92;;
58758;SDS011;46777;47.482;19.054;2022-12-18T15:43:31;51.40;;;41.20;;
58758;SDS011;46777;47.482;19.054;2022-12-18T15:46:20;51.35;;;40.70;;
58758;SDS011;46777;47.482;19.054;2022-12-18T15:49:04;49.80;;;41.20;;
58758;SDS011;46777;47.482;19.054;2022-12-18T15:51:51;51.45;;;42.17;;
58758;SDS011;46777;47.482;19.054;2022-12-18T15:54:36;52.50;;;42.78;;
58758;SDS011;46777;47.482;19.054;2022-12-18T15:57:40;54.33;;;43.50;;
58758;SDS011;46777;47.482;19.054;2022-12-18T16:00:24;54.38;;;43.75;;
58758;SDS011;46777;47.482;19.054;2022-12-18T16:03:08;54.00;;;43.80;;
58758;SDS011;46777;47.482;19.054;2022-12-18T16:05:53;57.42;;;43.55;;
58758;SDS011;46777;47.482;19.054;2022-12-18T16:08:37;57.42;;;44.22;;
58758;SDS011;46777;47.482;19.054;2022-12-18T16:11:25;53.90;;;44.35;;
58758;SDS011;46777;47.482;19.054;2022-12-18T16:14:26;54.05;;;43.15;;
58758;SDS011;46777;47.482;19.054;2022-12-18T16:17:11;55.67;;;44.72;;
58758;SDS011;46777;47.482;19.054;2022-12-18T16:19:55;52.72;;;42.67;;
58758;SDS011;46777;47.482;19.054;2022-12-18T16:22:40;54.30;;;43.03;;
58758;SDS011;46777;47.482;19.054;2022-12-18T16:25:26;54.40;;;43.75;;
58758;SDS011;46777;47.482;19.054;2022-12-18T16:28:10;53.78;;;41.95;;
58758;SDS011;46777;47.482;19.054;2022-12-18T16:30:55;58.40;;;49.97;;
58758;SDS011;46777;47.482;19.054;2022-12-18T16:33:39;55.50;;;44.03;;
58758;SDS011;46777;47.482;19.054;2022-12-18T16:36:23;59.05;;;46.20;;
58758;SDS011;46777;47.482;19.054;2022-12-18T16:39:08;55.13;;;45.03;;
58758;SDS011;46777;47.482;19.054;2022-12-18T16:41:52;57.08;;;45.70;;
58758;SDS011;46777;47.482;19.054;2022-12-18T16:44:37;59.42;;;45.72;;
58758;SDS011;46777;47.482;19.054;2022-12-18T16:47:21;58.20;;;44.22;;
58758;SDS011;46777;47.482;19.054;2022-12-18T16:50:05;57.22;;;44.40;;
58758;SDS011;46777;47.482;19.054;2022-12-18T16:52:50;55.90;;;45.10;;
58758;SDS011;46777;47.482;19.054;2022-12-18T16:55:34;57.67;;;44.83;;
58758;SDS011;46777;47.482;19.054;2022-12-18T16:58:19;56.95;;;45.28;;
58758;SDS011;46777;47.482;19.054;2022-12-18T17:01:07;54.60;;;43.15;;
58758;SDS011;46777;47.482;19.054;2022-12-18T17:03:56;57.55;;;43.17;;
58758;SDS011;46777;47.482;19.054;2022-12-18T17:06:41;56.05;;;44.67;;
58758;SDS011;46777;47.482;19.054;2022-12-18T17:09:26;57.72;;;45.00;;
58758;SDS011;46777;47.482;19.054;2022-12-18T17:12:10;57.35;;;43.58;;
58758;SDS011;46777;47.482;19.054;2022-12-18T17:14:54;57.15;;;44.78;;
58758;SDS011;46777;47.482;19.054;2022-12-18T17:17:39;60.22;;;44.35;;
58758;SDS011;46777;47.482;19.054;2022-12-18T17:20:23;57.35;;;45.17;;
58758;SDS011;46777;47.482;19.054;2022-12-18T17:23:08;57.65;;;45.15;;
58758;SDS011;46777;47.482;19.054;2022-12-18T17:25:55;57.13;;;46.60;;
58758;SDS011;46777;47.482;19.054;2022-12-18T17:28:40;54.83;;;44.88;;
58758;SDS011;46777;47.482;19.054;2022-12-18T17:31:26;55.38;;;45.45;;
58758;SDS011;46777;47.482;19.054;2022-12-18T17:34:11;61.35;;;46.30;;
58758;SDS011;46777;47.482;19.054;2022-12-18T17:36:55;57.83;;;45.63;;
58758;SDS011;46777;47.482;19.054;2022-12-18T17:39:40;57.55;;;45.70;;
58758;SDS011;46777;47.482;19.054;2022-12-18T17:42:25;69.85;;;56.35;;
58758;SDS011;46777;47.482;19.054;2022-12-18T17:45:09;67.72;;;56.25;;
58758;SDS011;46777;47.482;19.054;2022-12-18T17:47:54;74.47;;;64.50;;
58758;SDS011;46777;47.482;19.054;2022-12-18T17:50:38;72.72;;;59.63;;
58758;SDS011;46777;47.482;19.054;2022-12-18T17:53:22;64.80;;;53.67;;